sensor_id;sensor_type;location;lat;lon;timestamp;temperature;humidity
46117;DHT22;32591;48.102;11.772;2022-08-19T00:00:38;18.80;99.90
46117;DHT22;32591;48.102;11.772;2022-08-19T00:03:06;18.70;99.90
46117;DHT22;32591;48.102;11.772;2022-08-19T00:05:33;18.70;99.90
46117;DHT22;32591;48.102;11.772;2022-08-19T00:08:00;18.70;99.90
46117;DHT22;32591;48.102;11.772;2022-08-19T00:10:27;18.70;99.90
46117;DHT22;32591;48.102;11.772;2022-08-19T00:12:56;18.70;99.90
46117;DHT22;32591;48.102;11.772;2022-08-19T00:15:23;18.70;99.90
46117;DHT22;32591;48.102;11.772;2022-08-19T00:17:49;18.70;99.90
46117;DHT22;32591;48.102;11.772;2022-08-19T00:20:19;18.70;99.90
46117;DHT22;32591;48.102;11.772;2022-08-19T00:22:47;18.70;99.90
46117;DHT22;32591;48.102;11.772;2022-08-19T00:25:14;18.70;99.90
46117;DHT22;32591;48.102;11.772;2022-08-19T00:27:42;18.70;99.90
46117;DHT22;32591;48.102;11.772;2022-08-19T00:30:11;18.70;99.90
46117;DHT22;32591;48.102;11.772;2022-08-19T00:32:38;18.70;99.90
46117;DHT22;32591;48.102;11.772;2022-08-19T00:35:06;18.70;99.90
46117;DHT22;32591;48.102;11.772;2022-08-19T00:37:35;18.70;99.90
46117;DHT22;32591;48.102;11.772;2022-08-19T00:40:03;18.60;99.90
46117;DHT22;32591;48.102;11.772;2022-08-19T00:42:31;18.70;99.90
46117;DHT22;32591;48.102;11.772;2022-08-19T00:45:14;18.70;99.90
46117;DHT22;32591;48.102;11.772;2022-08-19T00:47:53;18.70;99.90
46117;DHT22;32591;48.102;11.772;2022-08-19T00:50:21;18.70;99.90
46117;DHT22;32591;48.102;11.772;2022-08-19T00:52:50;18.70;99.90
46117;DHT22;32591;48.102;11.772;2022-08-19T00:55:21;18.60;99.90
46117;DHT22;32591;48.102;11.772;2022-08-19T00:57:52;18.70;99.90
46117;DHT22;32591;48.102;11.772;2022-08-19T01:00:25;18.60;99.90
46117;DHT22;32591;48.102;11.772;2022-08-19T01:02:53;18.50;99.90
46117;DHT22;32591;48.102;11.772;2022-08-19T01:05:22;18.50;99.90
46117;DHT22;32591;48.102;11.772;2022-08-19T01:07:53;18.50;99.90
46117;DHT22;32591;48.102;11.772;2022-08-19T01:10:23;18.50;99.90
46117;DHT22;32591;48.102;11.772;2022-08-19T01:12:52;18.50;99.90
46117;DHT22;32591;48.102;11.772;2022-08-19T01:15:25;18.60;99.90
46117;DHT22;32591;48.102;11.772;2022-08-19T01:17:55;18.60;99.90
46117;DHT22;32591;48.102;11.772;2022-08-19T01:20:24;18.50;99.90
46117;DHT22;32591;48.102;11.772;2022-08-19T01:22:54;18.50;99.90
46117;DHT22;32591;48.102;11.772;2022-08-19T01:25:27;18.60;99.90
46117;DHT22;32591;48.102;11.772;2022-08-19T01:27:56;18.50;99.90
46117;DHT22;32591;48.102;11.772;2022-08-19T01:30:30;18.50;99.90
46117;DHT22;32591;48.102;11.772;2022-08-19T01:33:01;18.60;99.90
46117;DHT22;32591;48.102;11.772;2022-08-19T01:35:31;18.40;99.90
46117;DHT22;32591;48.102;11.772;2022-08-19T01:38:03;18.50;99.90
46117;DHT22;32591;48.102;11.772;2022-08-19T01:40:35;18.50;99.90
46117;DHT22;32591;48.102;11.772;2022-08-19T01:43:04;18.50;99.90
46117;DHT22;32591;48.102;11.772;2022-08-19T01:45:34;18.60;99.90
46117;DHT22;32591;48.102;11.772;2022-08-19T01:48:04;18.60;99.90
46117;DHT22;32591;48.102;11.772;2022-08-19T01:50:32;18.60;99.90
46117;DHT22;32591;48.102;11.772;2022-08-19T01:53:11;18.80;99.90
46117;DHT22;32591;48.102;11.772;2022-08-19T01:55:41;18.80;99.90
46117;DHT22;32591;48.102;11.772;2022-08-19T01:58:12;18.80;99.90
46117;DHT22;32591;48.102;11.772;2022-08-19T02:00:43;18.70;99.90
46117;DHT22;32591;48.102;11.772;2022-08-19T02:03:10;18.80;99.90
46117;DHT22;32591;48.102;11.772;2022-08-19T02:05:38;18.80;99.90
46117;DHT22;32591;48.102;11.772;2022-08-19T02:08:05;18.80;99.90
46117;DHT22;32591;48.102;11.772;2022-08-19T02:10:38;18.80;99.90
46117;DHT22;32591;48.102;11.772;2022-08-19T02:13:06;18.80;99.90
46117;DHT22;32591;48.102;11.772;2022-08-19T02:15:33;18.90;99.90
46117;DHT22;32591;48.102;11.772;2022-08-19T02:18:00;18.90;99.90
46117;DHT22;32591;48.102;11.772;2022-08-19T02:20:27;18.80;99.90
46117;DHT22;32591;48.102;11.772;2022-08-19T02:22:54;18.80;99.90
46117;DHT22;32591;48.102;11.772;2022-08-19T02:25:22;18.80;99.90
46117;DHT22;32591;48.102;11.772;2022-08-19T02:27:50;18.80;99.90
46117;DHT22;32591;48.102;11.772;2022-08-19T02:30:18;18.70;99.90
46117;DHT22;32591;48.102;11.772;2022-08-19T02:32:45;18.70;99.90
46117;DHT22;32591;48.102;11.772;2022-08-19T02:35:12;18.70;99.90
46117;DHT22;32591;48.102;11.772;2022-08-19T02:37:39;18.70;99.90
46117;DHT22;32591;48.102;11.772;2022-08-19T02:40:24;18.80;99.90
46117;DHT22;32591;48.102;11.772;2022-08-19T02:42:52;18.80;99.90
46117;DHT22;32591;48.102;11.772;2022-08-19T02:45:19;18.80;99.90
46117;DHT22;32591;48.102;11.772;2022-08-19T02:47:46;18.70;99.90
46117;DHT22;32591;48.102;11.772;2022-08-19T02:50:14;18.80;99.90
46117;DHT22;32591;48.102;11.772;2022-08-19T02:52:41;18.80;99.90
46117;DHT22;32591;48.102;11.772;2022-08-19T02:55:08;18.80;99.90
46117;DHT22;32591;48.102;11.772;2022-08-19T02:57:35;18.70;99.90
46117;DHT22;32591;48.102;11.772;2022-08-19T03:00:06;18.60;99.90
46117;DHT22;32591;48.102;11.772;2022-08-19T03:02:35;18.60;99.90
46117;DHT22;32591;48.102;11.772;2022-08-19T03:05:12;18.60;99.90
46117;DHT22;32591;48.102;11.772;2022-08-19T03:07:39;18.60;99.90
46117;DHT22;32591;48.102;11.772;2022-08-19T03:10:07;18.50;99.90
46117;DHT22;32591;48.102;11.772;2022-08-19T03:12:36;18.50;99.90
46117;DHT22;32591;48.102;11.772;2022-08-19T03:15:07;18.50;99.90
46117;DHT22;32591;48.102;11.772;2022-08-19T03:17:35;18.40;99.90
46117;DHT22;32591;48.102;11.772;2022-08-19T03:20:04;18.30;99.90
46117;DHT22;32591;48.102;11.772;2022-08-19T03:22:31;18.30;99.90
46117;DHT22;32591;48.102;11.772;2022-08-19T03:24:58;18.30;99.90
46117;DHT22;32591;48.102;11.772;2022-08-19T03:27:25;18.40;99.90
46117;DHT22;32591;48.102;11.772;2022-08-19T03:29:52;18.30;99.90
46117;DHT22;32591;48.102;11.772;2022-08-19T03:32:20;18.30;99.90
46117;DHT22;32591;48.102;11.772;2022-08-19T03:34:48;18.30;99.90
46117;DHT22;32591;48.102;11.772;2022-08-19T03:37:16;18.20;99.90
46117;DHT22;32591;48.102;11.772;2022-08-19T03:39:43;18.30;99.90
46117;DHT22;32591;48.102;11.772;2022-08-19T03:42:10;18.30;99.90
46117;DHT22;32591;48.102;11.772;2022-08-19T03:44:38;18.40;99.90
46117;DHT22;32591;48.102;11.772;2022-08-19T03:47:05;18.40;99.90
46117;DHT22;32591;48.102;11.772;2022-08-19T03:49:34;18.40;99.90
46117;DHT22;32591;48.102;11.772;2022-08-19T03:52:02;18.40;99.90
46117;DHT22;32591;48.102;11.772;2022-08-19T03:54:32;18.40;99.90
46117;DHT22;32591;48.102;11.772;2022-08-19T03:57:03;18.40;99.90
46117;DHT22;32591;48.102;11.772;2022-08-19T03:59:33;18.50;99.90
46117;DHT22;32591;48.102;11.772;2022-08-19T04:02:03;18.50;99.90
46117;DHT22;32591;48.102;11.772;2022-08-19T04:04:36;18.50;99.90
46117;DHT22;32591;48.102;11.772;2022-08-19T04:07:03;18.50;99.90
46117;DHT22;32591;48.102;11.772;2022-08-19T04:09:32;18.50;99.90
46117;DHT22;32591;48.102;11.772;2022-08-19T04:11:59;18.40;99.90
46117;DHT22;32591;48.102;11.772;2022-08-19T04:14:36;18.40;99.90
46117;DHT22;32591;48.102;11.772;2022-08-19T04:17:03;18.50;99.90
46117;DHT22;32591;48.102;11.772;2022-08-19T04:19:31;18.60;99.90
46117;DHT22;32591;48.102;11.772;2022-08-19T04:22:00;18.70;99.90
46117;DHT22;32591;48.102;11.772;2022-08-19T04:24:27;18.80;99.90
46117;DHT22;32591;48.102;11.772;2022-08-19T04:26:54;18.70;99.90
46117;DHT22;32591;48.102;11.772;2022-08-19T04:29:23;18.80;99.90
46117;DHT22;32591;48.102;11.772;2022-08-19T04:31:53;18.80;99.90
46117;DHT22;32591;48.102;11.772;2022-08-19T04:34:23;18.90;99.90
46117;DHT22;32591;48.102;11.772;2022-08-19T04:36:52;18.90;99.90
46117;DHT22;32591;48.102;11.772;2022-08-19T04:39:23;18.90;99.90
46117;DHT22;32591;48.102;11.772;2022-08-19T04:42:12;19.10;99.90
46117;DHT22;32591;48.102;11.772;2022-08-19T04:44:57;19.10;99.90
46117;DHT22;32591;48.102;11.772;2022-08-19T04:47:25;19.10;99.90
46117;DHT22;32591;48.102;11.772;2022-08-19T04:49:52;19.10;99.90
46117;DHT22;32591;48.102;11.772;2022-08-19T04:52:18;19.10;99.90
46117;DHT22;32591;48.102;11.772;2022-08-19T04:54:47;19.00;99.90
46117;DHT22;32591;48.102;11.772;2022-08-19T04:57:14;19.10;99.90
46117;DHT22;32591;48.102;11.772;2022-08-19T04:59:41;19.10;99.90
46117;DHT22;32591;48.102;11.772;2022-08-19T05:02:08;19.10;99.90
46117;DHT22;32591;48.102;11.772;2022-08-19T05:04:36;19.10;99.90
46117;DHT22;32591;48.102;11.772;2022-08-19T05:07:05;19.10;99.90
46117;DHT22;32591;48.102;11.772;2022-08-19T05:09:32;19.10;99.90
46117;DHT22;32591;48.102;11.772;2022-08-19T05:12:02;19.20;99.90
46117;DHT22;32591;48.102;11.772;2022-08-19T05:14:29;19.20;99.90
46117;DHT22;32591;48.102;11.772;2022-08-19T05:16:56;19.20;99.90
46117;DHT22;32591;48.102;11.772;2022-08-19T05:19:23;19.30;99.90
46117;DHT22;32591;48.102;11.772;2022-08-19T05:22:07;19.20;99.90
46117;DHT22;32591;48.102;11.772;2022-08-19T05:24:52;19.30;99.90
46117;DHT22;32591;48.102;11.772;2022-08-19T05:27:20;19.10;99.90
46117;DHT22;32591;48.102;11.772;2022-08-19T05:29:47;19.00;99.90
46117;DHT22;32591;48.102;11.772;2022-08-19T05:32:13;19.00;99.90
46117;DHT22;32591;48.102;11.772;2022-08-19T05:34:40;19.00;99.90
46117;DHT22;32591;48.102;11.772;2022-08-19T05:37:08;19.00;99.90
46117;DHT22;32591;48.102;11.772;2022-08-19T05:39:37;19.00;99.90
46117;DHT22;32591;48.102;11.772;2022-08-19T05:42:06;19.00;99.90
46117;DHT22;32591;48.102;11.772;2022-08-19T05:44:42;19.00;99.90
46117;DHT22;32591;48.102;11.772;2022-08-19T05:47:11;19.10;99.90
46117;DHT22;32591;48.102;11.772;2022-08-19T05:49:41;19.00;99.90
46117;DHT22;32591;48.102;11.772;2022-08-19T05:52:12;19.00;99.90
46117;DHT22;32591;48.102;11.772;2022-08-19T05:54:42;19.00;99.90
46117;DHT22;32591;48.102;11.772;2022-08-19T05:57:15;19.00;99.90
46117;DHT22;32591;48.102;11.772;2022-08-19T05:59:43;19.10;99.90
46117;DHT22;32591;48.102;11.772;2022-08-19T06:02:15;19.00;99.90
46117;DHT22;32591;48.102;11.772;2022-08-19T06:04:42;19.00;99.90
46117;DHT22;32591;48.102;11.772;2022-08-19T06:07:09;19.00;99.90
46117;DHT22;32591;48.102;11.772;2022-08-19T06:09:36;19.10;99.90
46117;DHT22;32591;48.102;11.772;2022-08-19T06:12:03;19.00;99.90
46117;DHT22;32591;48.102;11.772;2022-08-19T06:14:33;19.00;99.90
46117;DHT22;32591;48.102;11.772;2022-08-19T06:17:02;19.00;99.90
46117;DHT22;32591;48.102;11.772;2022-08-19T06:19:30;19.00;99.90
46117;DHT22;32591;48.102;11.772;2022-08-19T06:21:58;19.00;99.90
46117;DHT22;32591;48.102;11.772;2022-08-19T06:24:27;19.00;99.90
46117;DHT22;32591;48.102;11.772;2022-08-19T06:26:57;19.00;99.90
46117;DHT22;32591;48.102;11.772;2022-08-19T06:29:25;19.10;99.90
46117;DHT22;32591;48.102;11.772;2022-08-19T06:31:54;19.10;99.90
46117;DHT22;32591;48.102;11.772;2022-08-19T06:34:28;19.10;99.90
46117;DHT22;32591;48.102;11.772;2022-08-19T06:36:58;19.00;99.90
46117;DHT22;32591;48.102;11.772;2022-08-19T06:39:30;18.90;99.90
46117;DHT22;32591;48.102;11.772;2022-08-19T06:42:00;19.00;99.90
46117;DHT22;32591;48.102;11.772;2022-08-19T06:44:30;19.00;99.90
46117;DHT22;32591;48.102;11.772;2022-08-19T06:47:01;19.10;99.90
46117;DHT22;32591;48.102;11.772;2022-08-19T06:49:29;19.10;99.90
46117;DHT22;32591;48.102;11.772;2022-08-19T06:51:58;19.00;99.90
46117;DHT22;32591;48.102;11.772;2022-08-19T06:54:25;19.00;99.90
46117;DHT22;32591;48.102;11.772;2022-08-19T06:56:54;19.10;99.90
46117;DHT22;32591;48.102;11.772;2022-08-19T06:59:23;19.10;99.90
46117;DHT22;32591;48.102;11.772;2022-08-19T07:01:54;19.10;99.90
46117;DHT22;32591;48.102;11.772;2022-08-19T07:04:26;19.10;99.90
46117;DHT22;32591;48.102;11.772;2022-08-19T07:07:00;19.00;99.90
46117;DHT22;32591;48.102;11.772;2022-08-19T07:09:31;18.80;99.90
46117;DHT22;32591;48.102;11.772;2022-08-19T07:11:58;18.70;99.90
46117;DHT22;32591;48.102;11.772;2022-08-19T07:14:27;18.70;99.90
46117;DHT22;32591;48.102;11.772;2022-08-19T07:16:55;18.80;99.90
46117;DHT22;32591;48.102;11.772;2022-08-19T07:19:24;18.80;99.90
46117;DHT22;32591;48.102;11.772;2022-08-19T07:21:54;18.90;99.90
46117;DHT22;32591;48.102;11.772;2022-08-19T07:24:24;19.00;99.90
46117;DHT22;32591;48.102;11.772;2022-08-19T07:26:54;19.10;99.90
46117;DHT22;32591;48.102;11.772;2022-08-19T07:29:26;19.10;99.90
46117;DHT22;32591;48.102;11.772;2022-08-19T07:31:55;19.10;99.90
46117;DHT22;32591;48.102;11.772;2022-08-19T07:34:24;19.20;99.90
46117;DHT22;32591;48.102;11.772;2022-08-19T07:36:53;19.40;99.90
46117;DHT22;32591;48.102;11.772;2022-08-19T07:39:24;19.40;99.90
46117;DHT22;32591;48.102;11.772;2022-08-19T07:41:53;19.50;99.90
46117;DHT22;32591;48.102;11.772;2022-08-19T07:44:21;19.50;99.90
46117;DHT22;32591;48.102;11.772;2022-08-19T07:46:50;19.50;99.90
46117;DHT22;32591;48.102;11.772;2022-08-19T07:49:20;19.60;99.90
46117;DHT22;32591;48.102;11.772;2022-08-19T07:51:49;19.80;99.90
46117;DHT22;32591;48.102;11.772;2022-08-19T07:54:18;19.70;99.90
46117;DHT22;32591;48.102;11.772;2022-08-19T07:56:47;19.70;99.90
46117;DHT22;32591;48.102;11.772;2022-08-19T07:59:16;19.70;99.90
46117;DHT22;32591;48.102;11.772;2022-08-19T08:01:43;19.60;99.90
46117;DHT22;32591;48.102;11.772;2022-08-19T08:04:10;19.70;99.90
46117;DHT22;32591;48.102;11.772;2022-08-19T08:06:55;19.70;99.90
46117;DHT22;32591;48.102;11.772;2022-08-19T08:09:42;19.70;99.90
46117;DHT22;32591;48.102;11.772;2022-08-19T08:12:13;19.60;99.90
46117;DHT22;32591;48.102;11.772;2022-08-19T08:14:44;19.70;99.90
46117;DHT22;32591;48.102;11.772;2022-08-19T08:17:13;19.60;99.90
46117;DHT22;32591;48.102;11.772;2022-08-19T08:19:42;19.60;99.90
46117;DHT22;32591;48.102;11.772;2022-08-19T08:22:11;19.70;99.90
46117;DHT22;32591;48.102;11.772;2022-08-19T08:25:03;19.60;99.90
46117;DHT22;32591;48.102;11.772;2022-08-19T08:27:35;19.60;99.90
46117;DHT22;32591;48.102;11.772;2022-08-19T08:30:06;19.60;99.90
46117;DHT22;32591;48.102;11.772;2022-08-19T08:32:35;19.70;99.90
46117;DHT22;32591;48.102;11.772;2022-08-19T08:35:03;19.70;99.90
46117;DHT22;32591;48.102;11.772;2022-08-19T08:37:30;19.80;99.90
46117;DHT22;32591;48.102;11.772;2022-08-19T08:39:57;19.70;99.90
46117;DHT22;32591;48.102;11.772;2022-08-19T08:42:28;19.80;99.90
46117;DHT22;32591;48.102;11.772;2022-08-19T08:45:02;19.70;99.90
46117;DHT22;32591;48.102;11.772;2022-08-19T08:47:35;19.60;99.90
46117;DHT22;32591;48.102;11.772;2022-08-19T08:50:07;19.60;99.90
46117;DHT22;32591;48.102;11.772;2022-08-19T08:52:42;19.60;99.90
46117;DHT22;32591;48.102;11.772;2022-08-19T08:55:16;19.70;99.90
46117;DHT22;32591;48.102;11.772;2022-08-19T08:57:52;19.80;99.90
46117;DHT22;32591;48.102;11.772;2022-08-19T09:00:25;19.80;99.90
46117;DHT22;32591;48.102;11.772;2022-08-19T09:02:54;19.80;99.90
46117;DHT22;32591;48.102;11.772;2022-08-19T09:05:28;19.80;99.90
46117;DHT22;32591;48.102;11.772;2022-08-19T09:08:04;19.80;99.90
46117;DHT22;32591;48.102;11.772;2022-08-19T09:10:38;19.90;99.90
46117;DHT22;32591;48.102;11.772;2022-08-19T09:13:14;19.90;99.90
46117;DHT22;32591;48.102;11.772;2022-08-19T09:15:54;19.80;99.90
46117;DHT22;32591;48.102;11.772;2022-08-19T09:18:24;19.80;99.90
46117;DHT22;32591;48.102;11.772;2022-08-19T09:20:51;19.80;99.90
46117;DHT22;32591;48.102;11.772;2022-08-19T09:23:18;19.80;99.90
46117;DHT22;32591;48.102;11.772;2022-08-19T09:25:49;19.80;99.90
46117;DHT22;32591;48.102;11.772;2022-08-19T09:28:17;19.90;99.90
46117;DHT22;32591;48.102;11.772;2022-08-19T09:30:44;20.10;99.90
46117;DHT22;32591;48.102;11.772;2022-08-19T09:33:11;20.10;99.90
46117;DHT22;32591;48.102;11.772;2022-08-19T09:35:38;20.10;99.90
46117;DHT22;32591;48.102;11.772;2022-08-19T09:38:05;20.00;99.90
46117;DHT22;32591;48.102;11.772;2022-08-19T09:40:32;19.90;99.90
46117;DHT22;32591;48.102;11.772;2022-08-19T09:42:59;19.90;99.90
46117;DHT22;32591;48.102;11.772;2022-08-19T09:45:29;19.90;99.90
46117;DHT22;32591;48.102;11.772;2022-08-19T09:47:57;20.20;99.90
46117;DHT22;32591;48.102;11.772;2022-08-19T09:50:24;20.20;99.90
46117;DHT22;32591;48.102;11.772;2022-08-19T09:52:53;20.40;99.90
46117;DHT22;32591;48.102;11.772;2022-08-19T09:55:20;20.70;99.90
46117;DHT22;32591;48.102;11.772;2022-08-19T09:57:47;21.00;99.90
46117;DHT22;32591;48.102;11.772;2022-08-19T10:00:14;21.00;99.90
46117;DHT22;32591;48.102;11.772;2022-08-19T10:02:52;20.90;99.90
46117;DHT22;32591;48.102;11.772;2022-08-19T10:05:19;21.00;99.90
46117;DHT22;32591;48.102;11.772;2022-08-19T10:08:04;21.00;99.90
46117;DHT22;32591;48.102;11.772;2022-08-19T10:10:35;20.90;99.90
46117;DHT22;32591;48.102;11.772;2022-08-19T10:13:02;21.00;99.90
46117;DHT22;32591;48.102;11.772;2022-08-19T10:15:29;21.00;99.90
46117;DHT22;32591;48.102;11.772;2022-08-19T10:17:58;20.90;99.90
46117;DHT22;32591;48.102;11.772;2022-08-19T10:20:25;20.90;99.90
46117;DHT22;32591;48.102;11.772;2022-08-19T10:22:52;20.90;99.90
46117;DHT22;32591;48.102;11.772;2022-08-19T10:25:20;20.90;99.90
46117;DHT22;32591;48.102;11.772;2022-08-19T10:27:47;20.90;99.90
46117;DHT22;32591;48.102;11.772;2022-08-19T10:30:14;21.00;99.90
46117;DHT22;32591;48.102;11.772;2022-08-19T10:32:41;21.20;99.90
46117;DHT22;32591;48.102;11.772;2022-08-19T10:35:09;21.30;99.90
46117;DHT22;32591;48.102;11.772;2022-08-19T10:37:36;21.40;99.90
46117;DHT22;32591;48.102;11.772;2022-08-19T10:40:06;21.50;99.90
46117;DHT22;32591;48.102;11.772;2022-08-19T10:42:36;21.50;99.90
46117;DHT22;32591;48.102;11.772;2022-08-19T10:45:04;21.50;99.90
46117;DHT22;32591;48.102;11.772;2022-08-19T10:47:32;21.50;99.90
46117;DHT22;32591;48.102;11.772;2022-08-19T10:49:59;21.50;99.90
46117;DHT22;32591;48.102;11.772;2022-08-19T10:52:48;21.40;99.60
46117;DHT22;32591;48.102;11.772;2022-08-19T10:55:17;21.20;99.90
46117;DHT22;32591;48.102;11.772;2022-08-19T10:58:03;21.30;99.90
46117;DHT22;32591;48.102;11.772;2022-08-19T11:00:30;21.50;99.50
46117;DHT22;32591;48.102;11.772;2022-08-19T11:02:57;21.60;98.70
46117;DHT22;32591;48.102;11.772;2022-08-19T11:05:25;21.50;98.30
46117;DHT22;32591;48.102;11.772;2022-08-19T11:07:53;21.40;98.50
46117;DHT22;32591;48.102;11.772;2022-08-19T11:10:20;21.40;98.90
46117;DHT22;32591;48.102;11.772;2022-08-19T11:12:57;21.30;99.40
46117;DHT22;32591;48.102;11.772;2022-08-19T11:15:23;21.10;99.30
46117;DHT22;32591;48.102;11.772;2022-08-19T11:17:54;21.00;99.80
46117;DHT22;32591;48.102;11.772;2022-08-19T11:20:21;21.10;99.90
46117;DHT22;32591;48.102;11.772;2022-08-19T11:22:52;21.10;99.90
46117;DHT22;32591;48.102;11.772;2022-08-19T11:25:19;21.20;99.90
46117;DHT22;32591;48.102;11.772;2022-08-19T11:27:47;21.10;99.90
46117;DHT22;32591;48.102;11.772;2022-08-19T11:30:16;21.10;99.90
46117;DHT22;32591;48.102;11.772;2022-08-19T11:32:43;21.30;99.90
46117;DHT22;32591;48.102;11.772;2022-08-19T11:35:10;21.60;99.30
46117;DHT22;32591;48.102;11.772;2022-08-19T11:37:37;21.80;97.80
46117;DHT22;32591;48.102;11.772;2022-08-19T11:40:07;21.90;97.20
46117;DHT22;32591;48.102;11.772;2022-08-19T11:42:35;22.20;97.50
46117;DHT22;32591;48.102;11.772;2022-08-19T11:45:20;22.60;96.30
46117;DHT22;32591;48.102;11.772;2022-08-19T11:47:47;22.90;94.30
46117;DHT22;32591;48.102;11.772;2022-08-19T11:50:14;22.80;94.00
46117;DHT22;32591;48.102;11.772;2022-08-19T11:52:41;22.80;93.10
46117;DHT22;32591;48.102;11.772;2022-08-19T11:55:11;22.60;93.80
46117;DHT22;32591;48.102;11.772;2022-08-19T11:57:38;22.50;95.00
46117;DHT22;32591;48.102;11.772;2022-08-19T12:00:07;22.20;94.30
46117;DHT22;32591;48.102;11.772;2022-08-19T12:02:35;22.10;95.10
46117;DHT22;32591;48.102;11.772;2022-08-19T12:05:03;22.20;94.60
46117;DHT22;32591;48.102;11.772;2022-08-19T12:07:31;22.40;94.70
46117;DHT22;32591;48.102;11.772;2022-08-19T12:09:58;22.50;94.50
46117;DHT22;32591;48.102;11.772;2022-08-19T12:12:27;22.50;93.40
46117;DHT22;32591;48.102;11.772;2022-08-19T12:14:54;22.50;93.90
46117;DHT22;32591;48.102;11.772;2022-08-19T12:17:24;22.40;94.50
46117;DHT22;32591;48.102;11.772;2022-08-19T12:19:52;22.40;95.00
46117;DHT22;32591;48.102;11.772;2022-08-19T12:22:19;22.10;96.20
46117;DHT22;32591;48.102;11.772;2022-08-19T12:24:47;21.90;97.00
46117;DHT22;32591;48.102;11.772;2022-08-19T12:27:16;21.80;96.60
46117;DHT22;32591;48.102;11.772;2022-08-19T12:29:44;21.60;96.70
46117;DHT22;32591;48.102;11.772;2022-08-19T12:32:11;21.40;97.00
46117;DHT22;32591;48.102;11.772;2022-08-19T12:34:38;21.30;97.50
46117;DHT22;32591;48.102;11.772;2022-08-19T12:37:06;21.30;97.30
46117;DHT22;32591;48.102;11.772;2022-08-19T12:39:38;21.30;97.80
46117;DHT22;32591;48.102;11.772;2022-08-19T12:42:07;21.30;98.00
46117;DHT22;32591;48.102;11.772;2022-08-19T12:44:35;21.40;98.10
46117;DHT22;32591;48.102;11.772;2022-08-19T12:47:06;21.60;98.20
46117;DHT22;32591;48.102;11.772;2022-08-19T12:49:33;22.10;96.10
46117;DHT22;32591;48.102;11.772;2022-08-19T12:52:03;22.50;95.80
46117;DHT22;32591;48.102;11.772;2022-08-19T12:54:30;23.10;93.90
46117;DHT22;32591;48.102;11.772;2022-08-19T12:56:57;23.30;92.40
46117;DHT22;32591;48.102;11.772;2022-08-19T12:59:25;22.90;92.30
46117;DHT22;32591;48.102;11.772;2022-08-19T13:01:52;22.80;92.90
46117;DHT22;32591;48.102;11.772;2022-08-19T13:04:21;22.80;93.30
46117;DHT22;32591;48.102;11.772;2022-08-19T13:06:48;22.80;92.50
46117;DHT22;32591;48.102;11.772;2022-08-19T13:09:15;22.80;92.80
46117;DHT22;32591;48.102;11.772;2022-08-19T13:11:42;23.10;91.60
46117;DHT22;32591;48.102;11.772;2022-08-19T13:14:09;23.20;91.40
46117;DHT22;32591;48.102;11.772;2022-08-19T13:16:37;23.20;91.50
46117;DHT22;32591;48.102;11.772;2022-08-19T13:19:04;23.30;91.40
46117;DHT22;32591;48.102;11.772;2022-08-19T13:21:32;23.50;90.70
46117;DHT22;32591;48.102;11.772;2022-08-19T13:23:59;23.60;90.80
46117;DHT22;32591;48.102;11.772;2022-08-19T13:26:27;23.90;89.10
46117;DHT22;32591;48.102;11.772;2022-08-19T13:28:54;23.60;88.50
46117;DHT22;32591;48.102;11.772;2022-08-19T13:31:41;23.60;90.60
46117;DHT22;32591;48.102;11.772;2022-08-19T13:34:29;23.60;89.40
46117;DHT22;32591;48.102;11.772;2022-08-19T13:37:00;23.70;88.40
46117;DHT22;32591;48.102;11.772;2022-08-19T13:39:29;23.60;88.10
46117;DHT22;32591;48.102;11.772;2022-08-19T13:41:58;23.10;89.10
46117;DHT22;32591;48.102;11.772;2022-08-19T13:44:27;22.70;90.00
46117;DHT22;32591;48.102;11.772;2022-08-19T13:46:55;22.70;90.70
46117;DHT22;32591;48.102;11.772;2022-08-19T13:49:32;23.10;89.90
46117;DHT22;32591;48.102;11.772;2022-08-19T13:52:02;23.40;87.90
46117;DHT22;32591;48.102;11.772;2022-08-19T13:54:29;23.30;87.70
46117;DHT22;32591;48.102;11.772;2022-08-19T13:56:56;23.10;86.20
46117;DHT22;32591;48.102;11.772;2022-08-19T13:59:23;22.80;87.20
46117;DHT22;32591;48.102;11.772;2022-08-19T14:01:50;22.80;87.90
46117;DHT22;32591;48.102;11.772;2022-08-19T14:04:17;22.90;87.90
46117;DHT22;32591;48.102;11.772;2022-08-19T14:06:44;23.00;87.10
46117;DHT22;32591;48.102;11.772;2022-08-19T14:09:12;23.00;87.70
46117;DHT22;32591;48.102;11.772;2022-08-19T14:11:39;22.90;87.90
46117;DHT22;32591;48.102;11.772;2022-08-19T14:14:06;22.80;88.30
46117;DHT22;32591;48.102;11.772;2022-08-19T14:16:33;22.60;90.20
46117;DHT22;32591;48.102;11.772;2022-08-19T14:19:00;22.50;91.00
46117;DHT22;32591;48.102;11.772;2022-08-19T14:21:27;22.30;91.30
46117;DHT22;32591;48.102;11.772;2022-08-19T14:23:54;22.20;92.30
46117;DHT22;32591;48.102;11.772;2022-08-19T14:26:22;22.10;92.80
46117;DHT22;32591;48.102;11.772;2022-08-19T14:28:49;21.90;93.20
46117;DHT22;32591;48.102;11.772;2022-08-19T14:31:18;21.80;93.70
46117;DHT22;32591;48.102;11.772;2022-08-19T14:33:49;21.60;94.30
46117;DHT22;32591;48.102;11.772;2022-08-19T14:36:17;21.60;94.70
46117;DHT22;32591;48.102;11.772;2022-08-19T14:38:45;21.50;95.30
46117;DHT22;32591;48.102;11.772;2022-08-19T14:41:18;21.50;95.60
46117;DHT22;32591;48.102;11.772;2022-08-19T14:43:50;21.80;94.80
46117;DHT22;32591;48.102;11.772;2022-08-19T14:46:25;22.40;94.30
46117;DHT22;32591;48.102;11.772;2022-08-19T14:48:53;22.70;92.50
46117;DHT22;32591;48.102;11.772;2022-08-19T14:51:22;22.70;92.40
46117;DHT22;32591;48.102;11.772;2022-08-19T14:53:53;23.10;91.30
46117;DHT22;32591;48.102;11.772;2022-08-19T14:56:23;23.20;91.10
46117;DHT22;32591;48.102;11.772;2022-08-19T14:58:53;23.50;90.50
46117;DHT22;32591;48.102;11.772;2022-08-19T15:01:21;23.80;90.50
46117;DHT22;32591;48.102;11.772;2022-08-19T15:03:49;23.90;88.10
46117;DHT22;32591;48.102;11.772;2022-08-19T15:06:18;23.60;89.30
46117;DHT22;32591;48.102;11.772;2022-08-19T15:08:45;23.20;90.30
46117;DHT22;32591;48.102;11.772;2022-08-19T15:11:15;22.70;91.30
46117;DHT22;32591;48.102;11.772;2022-08-19T15:13:45;22.50;92.30
46117;DHT22;32591;48.102;11.772;2022-08-19T15:16:14;22.20;92.40
46117;DHT22;32591;48.102;11.772;2022-08-19T15:18:41;22.00;92.30
46117;DHT22;32591;48.102;11.772;2022-08-19T15:21:10;22.00;92.90
46117;DHT22;32591;48.102;11.772;2022-08-19T15:23:39;21.90;93.40
46117;DHT22;32591;48.102;11.772;2022-08-19T15:26:07;21.90;93.70
46117;DHT22;32591;48.102;11.772;2022-08-19T15:28:36;21.70;93.60